sensor_id;sensor_type;location;lat;lon;timestamp;P1;durP1;ratioP1;P2;durP2;ratioP2
20318;SDS011;10317;47.254;11.314;2023-09-19T00:01:41;3.70;;;2.90;;
20318;SDS011;10317;47.254;11.314;2023-09-19T00:04:10;4.10;;;3.22;;
20318;SDS011;10317;47.254;11.314;2023-09-19T00:06:39;9.25;;;3.45;;
20318;SDS011;10317;47.254;11.314;2023-09-19T00:09:05;3.42;;;3.13;;
20318;SDS011;10317;47.254;11.314;2023-09-19T00:11:35;5.80;;;2.70;;
20318;SDS011;10317;47.254;11.314;2023-09-19T00:14:02;3.38;;;2.33;;
20318;SDS011;10317;47.254;11.314;2023-09-19T00:16:28;3.50;;;2.22;;
20318;SDS011;10317;47.254;11.314;2023-09-19T00:18:53;2.25;;;1.98;;
20318;SDS011;10317;47.254;11.314;2023-09-19T00:21:20;3.90;;;1.80;;
20318;SDS011;10317;47.254;11.314;2023-09-19T00:23:45;2.65;;;2.03;;
20318;SDS011;10317;47.254;11.314;2023-09-19T00:26:11;3.15;;;1.92;;
20318;SDS011;10317;47.254;11.314;2023-09-19T00:28:37;4.45;;;2.35;;
20318;SDS011;10317;47.254;11.314;2023-09-19T00:31:04;4.18;;;2.38;;
20318;SDS011;10317;47.254;11.314;2023-09-19T00:33:33;3.83;;;2.22;;
20318;SDS011;10317;47.254;11.314;2023-09-19T00:35:59;5.13;;;2.00;;
20318;SDS011;10317;47.254;11.314;2023-09-19T00:38:27;1.73;;;1.63;;
20318;SDS011;10317;47.254;11.314;2023-09-19T00:40:53;2.00;;;1.70;;
20318;SDS011;10317;47.254;11.314;2023-09-19T00:43:22;2.50;;;2.30;;
20318;SDS011;10317;47.254;11.314;2023-09-19T00:45:50;2.22;;;2.10;;
20318;SDS011;10317;47.254;11.314;2023-09-19T00:48:19;2.50;;;2.30;;
20318;SDS011;10317;47.254;11.314;2023-09-19T00:50:46;3.17;;;2.20;;
20318;SDS011;10317;47.254;11.314;2023-09-19T00:53:16;4.25;;;2.28;;
20318;SDS011;10317;47.254;11.314;2023-09-19T00:55:45;2.60;;;2.40;;
20318;SDS011;10317;47.254;11.314;2023-09-19T00:58:12;2.90;;;2.10;;
20318;SDS011;10317;47.254;11.314;2023-09-19T01:00:37;3.28;;;2.17;;
20318;SDS011;10317;47.254;11.314;2023-09-19T01:03:04;2.38;;;2.13;;
20318;SDS011;10317;47.254;11.314;2023-09-19T01:05:31;4.65;;;2.05;;
20318;SDS011;10317;47.254;11.314;2023-09-19T01:07:58;3.55;;;1.75;;
20318;SDS011;10317;47.254;11.314;2023-09-19T01:10:24;2.03;;;1.77;;
20318;SDS011;10317;47.254;11.314;2023-09-19T01:21:44;1.70;;;1.60;;
20318;SDS011;10317;47.254;11.314;2023-09-19T01:29:48;1.77;;;1.67;;
20318;SDS011;10317;47.254;11.314;2023-09-19T01:32:18;4.88;;;1.70;;
20318;SDS011;10317;47.254;11.314;2023-09-19T01:34:50;2.50;;;2.30;;
20318;SDS011;10317;47.254;11.314;2023-09-19T01:37:19;4.05;;;2.83;;
20318;SDS011;10317;47.254;11.314;2023-09-19T01:40:02;3.72;;;2.67;;
20318;SDS011;10317;47.254;11.314;2023-09-19T01:42:46;3.40;;;3.10;;
20318;SDS011;10317;47.254;11.314;2023-09-19T01:45:59;3.88;;;2.65;;
20318;SDS011;10317;47.254;11.314;2023-09-19T01:51:05;4.13;;;3.10;;
20318;SDS011;10317;47.254;11.314;2023-09-19T01:56:07;5.20;;;2.83;;
20318;SDS011;10317;47.254;11.314;2023-09-19T01:58:39;3.03;;;2.78;;
20318;SDS011;10317;47.254;11.314;2023-09-19T02:01:08;3.47;;;2.75;;
20318;SDS011;10317;47.254;11.314;2023-09-19T02:03:38;3.67;;;2.50;;
20318;SDS011;10317;47.254;11.314;2023-09-19T02:06:04;4.75;;;2.80;;
20318;SDS011;10317;47.254;11.314;2023-09-19T02:08:30;3.00;;;2.70;;
20318;SDS011;10317;47.254;11.314;2023-09-19T02:10:58;7.25;;;2.65;;
20318;SDS011;10317;47.254;11.314;2023-09-19T02:13:25;3.03;;;2.47;;
20318;SDS011;10317;47.254;11.314;2023-09-19T02:15:52;2.60;;;2.40;;
20318;SDS011;10317;47.254;11.314;2023-09-19T02:18:18;2.90;;;2.58;;
20318;SDS011;10317;47.254;11.314;2023-09-19T02:20:45;4.65;;;2.45;;
20318;SDS011;10317;47.254;11.314;2023-09-19T02:23:11;2.67;;;2.33;;
20318;SDS011;10317;47.254;11.314;2023-09-19T02:25:37;4.38;;;2.80;;
20318;SDS011;10317;47.254;11.314;2023-09-19T02:28:05;4.47;;;2.55;;
20318;SDS011;10317;47.254;11.314;2023-09-19T02:30:31;3.10;;;2.33;;
20318;SDS011;10317;47.254;11.314;2023-09-19T02:32:58;3.28;;;2.55;;
20318;SDS011;10317;47.254;11.314;2023-09-19T02:35:26;3.40;;;3.13;;
20318;SDS011;10317;47.254;11.314;2023-09-19T02:37:53;3.20;;;2.90;;
20318;SDS011;10317;47.254;11.314;2023-09-19T02:40:19;3.00;;;2.70;;
20318;SDS011;10317;47.254;11.314;2023-09-19T02:42:45;3.65;;;2.90;;
20318;SDS011;10317;47.254;11.314;2023-09-19T02:45:17;3.63;;;3.33;;
20318;SDS011;10317;47.254;11.314;2023-09-19T02:47:44;6.07;;;3.15;;
20318;SDS011;10317;47.254;11.314;2023-09-19T02:50:11;3.45;;;3.15;;
20318;SDS011;10317;47.254;11.314;2023-09-19T02:52:37;5.00;;;2.90;;
20318;SDS011;10317;47.254;11.314;2023-09-19T02:55:03;4.20;;;3.38;;
20318;SDS011;10317;47.254;11.314;2023-09-19T02:57:31;4.13;;;2.53;;
20318;SDS011;10317;47.254;11.314;2023-09-19T02:59:58;5.28;;;3.10;;
20318;SDS011;10317;47.254;11.314;2023-09-19T03:02:25;2.88;;;2.67;;
20318;SDS011;10317;47.254;11.314;2023-09-19T03:04:52;5.05;;;2.92;;
20318;SDS011;10317;47.254;11.314;2023-09-19T03:07:18;4.32;;;3.30;;
20318;SDS011;10317;47.254;11.314;2023-09-19T03:09:44;3.05;;;2.78;;
20318;SDS011;10317;47.254;11.314;2023-09-19T03:12:10;6.32;;;3.05;;
20318;SDS011;10317;47.254;11.314;2023-09-19T03:14:36;6.18;;;3.15;;
20318;SDS011;10317;47.254;11.314;2023-09-19T03:17:02;2.95;;;2.75;;
20318;SDS011;10317;47.254;11.314;2023-09-19T03:19:30;2.97;;;2.63;;
20318;SDS011;10317;47.254;11.314;2023-09-19T03:21:58;2.40;;;2.28;;
20318;SDS011;10317;47.254;11.314;2023-09-19T03:24:24;5.18;;;2.92;;
20318;SDS011;10317;47.254;11.314;2023-09-19T03:26:51;3.15;;;2.63;;
20318;SDS011;10317;47.254;11.314;2023-09-19T03:29:17;2.90;;;2.63;;
20318;SDS011;10317;47.254;11.314;2023-09-19T03:31:43;2.97;;;2.78;;
20318;SDS011;10317;47.254;11.314;2023-09-19T03:34:09;3.80;;;2.35;;
20318;SDS011;10317;47.254;11.314;2023-09-19T03:36:35;2.38;;;2.22;;
20318;SDS011;10317;47.254;11.314;2023-09-19T03:39:01;2.97;;;2.15;;
20318;SDS011;10317;47.254;11.314;2023-09-19T03:41:30;3.47;;;2.28;;
20318;SDS011;10317;47.254;11.314;2023-09-19T03:43:56;2.78;;;2.55;;
20318;SDS011;10317;47.254;11.314;2023-09-19T03:46:22;2.50;;;2.30;;
20318;SDS011;10317;47.254;11.314;2023-09-19T03:48:47;2.30;;;2.10;;
20318;SDS011;10317;47.254;11.314;2023-09-19T03:51:13;3.17;;;2.55;;
20318;SDS011;10317;47.254;11.314;2023-09-19T03:53:38;2.28;;;2.08;;
20318;SDS011;10317;47.254;11.314;2023-09-19T03:56:04;2.53;;;2.33;;
20318;SDS011;10317;47.254;11.314;2023-09-19T03:58:30;2.70;;;2.50;;
20318;SDS011;10317;47.254;11.314;2023-09-19T04:00:56;4.07;;;2.35;;
20318;SDS011;10317;47.254;11.314;2023-09-19T04:03:23;2.22;;;2.13;;
20318;SDS011;10317;47.254;11.314;2023-09-19T04:05:53;3.50;;;2.38;;
20318;SDS011;10317;47.254;11.314;2023-09-19T04:08:19;3.97;;;2.58;;
20318;SDS011;10317;47.254;11.314;2023-09-19T04:10:45;2.75;;;2.40;;
20318;SDS011;10317;47.254;11.314;2023-09-19T04:13:10;2.97;;;2.13;;
20318;SDS011;10317;47.254;11.314;2023-09-19T04:15:36;2.67;;;2.47;;
20318;SDS011;10317;47.254;11.314;2023-09-19T04:18:02;2.55;;;2.35;;
20318;SDS011;10317;47.254;11.314;2023-09-19T04:20:28;5.68;;;2.65;;
20318;SDS011;10317;47.254;11.314;2023-09-19T04:22:54;2.70;;;2.50;;
20318;SDS011;10317;47.254;11.314;2023-09-19T04:25:20;3.85;;;2.50;;
20318;SDS011;10317;47.254;11.314;2023-09-19T04:27:46;4.53;;;2.50;;
20318;SDS011;10317;47.254;11.314;2023-09-19T04:30:12;2.03;;;1.92;;
20318;SDS011;10317;47.254;11.314;2023-09-19T04:32:39;4.80;;;2.83;;
20318;SDS011;10317;47.254;11.314;2023-09-19T04:35:09;2.63;;;2.35;;
20318;SDS011;10317;47.254;11.314;2023-09-19T04:37:39;3.95;;;2.45;;
20318;SDS011;10317;47.254;11.314;2023-09-19T04:40:09;2.80;;;2.55;;
20318;SDS011;10317;47.254;11.314;2023-09-19T04:42:42;2.47;;;2.05;;
20318;SDS011;10317;47.254;11.314;2023-09-19T04:45:08;2.92;;;2.55;;
20318;SDS011;10317;47.254;11.314;2023-09-19T04:47:35;4.15;;;2.30;;
20318;SDS011;10317;47.254;11.314;2023-09-19T04:50:04;2.13;;;2.03;;
20318;SDS011;10317;47.254;11.314;2023-09-19T04:52:37;2.05;;;1.85;;
20318;SDS011;10317;47.254;11.314;2023-09-19T04:55:08;3.28;;;2.33;;
20318;SDS011;10317;47.254;11.314;2023-09-19T04:57:42;8.85;;;2.28;;
20318;SDS011;10317;47.254;11.314;2023-09-19T05:00:10;2.47;;;1.65;;
20318;SDS011;10317;47.254;11.314;2023-09-19T05:02:40;1.80;;;1.70;;
20318;SDS011;10317;47.254;11.314;2023-09-19T05:05:07;4.45;;;2.00;;
20318;SDS011;10317;47.254;11.314;2023-09-19T05:07:35;4.68;;;1.70;;
20318;SDS011;10317;47.254;11.314;2023-09-19T05:10:01;3.47;;;1.88;;
20318;SDS011;10317;47.254;11.314;2023-09-19T05:12:30;2.13;;;1.95;;
20318;SDS011;10317;47.254;11.314;2023-09-19T05:15:05;3.60;;;1.80;;
20318;SDS011;10317;47.254;11.314;2023-09-19T05:17:33;2.92;;;1.70;;
20318;SDS011;10317;47.254;11.314;2023-09-19T05:19:59;1.63;;;1.52;;
20318;SDS011;10317;47.254;11.314;2023-09-19T05:22:36;3.22;;;1.23;;
20318;SDS011;10317;47.254;11.314;2023-09-19T05:25:05;4.07;;;1.90;;
20318;SDS011;10317;47.254;11.314;2023-09-19T05:27:31;1.60;;;1.50;;
20318;SDS011;10317;47.254;11.314;2023-09-19T05:29:56;2.88;;;1.58;;
20318;SDS011;10317;47.254;11.314;2023-09-19T05:32:22;2.15;;;1.92;;
20318;SDS011;10317;47.254;11.314;2023-09-19T05:34:48;3.72;;;1.77;;
20318;SDS011;10317;47.254;11.314;2023-09-19T05:37:18;2.17;;;2.00;;
20318;SDS011;10317;47.254;11.314;2023-09-19T05:39:43;2.33;;;1.88;;
20318;SDS011;10317;47.254;11.314;2023-09-19T05:42:09;2.03;;;1.92;;
20318;SDS011;10317;47.254;11.314;2023-09-19T05:44:35;2.35;;;2.15;;
20318;SDS011;10317;47.254;11.314;2023-09-19T05:47:01;2.60;;;1.73;;
20318;SDS011;10317;47.254;11.314;2023-09-19T05:49:28;1.73;;;1.63;;
20318;SDS011;10317;47.254;11.314;2023-09-19T05:51:53;1.58;;;1.48;;
20318;SDS011;10317;47.254;11.314;2023-09-19T05:54:21;2.03;;;1.83;;
20318;SDS011;10317;47.254;11.314;2023-09-19T05:56:47;1.58;;;1.48;;
20318;SDS011;10317;47.254;11.314;2023-09-19T05:59:13;2.03;;;1.63;;
20318;SDS011;10317;47.254;11.314;2023-09-19T06:01:41;2.13;;;1.92;;
20318;SDS011;10317;47.254;11.314;2023-09-19T06:04:07;1.92;;;1.40;;
20318;SDS011;10317;47.254;11.314;2023-09-19T06:06:33;2.17;;;1.55;;
20318;SDS011;10317;47.254;11.314;2023-09-19T06:09:01;1.30;;;1.25;;
20318;SDS011;10317;47.254;11.314;2023-09-19T06:11:30;2.50;;;1.52;;
20318;SDS011;10317;47.254;11.314;2023-09-19T06:13:57;1.85;;;1.70;;
20318;SDS011;10317;47.254;11.314;2023-09-19T06:16:25;2.75;;;2.05;;
20318;SDS011;10317;47.254;11.314;2023-09-19T06:18:51;1.52;;;1.50;;
20318;SDS011;10317;47.254;11.314;2023-09-19T06:21:18;1.30;;;1.30;;
20318;SDS011;10317;47.254;11.314;2023-09-19T06:23:43;2.33;;;1.65;;
20318;SDS011;10317;47.254;11.314;2023-09-19T06:26:09;1.65;;;1.55;;
20318;SDS011;10317;47.254;11.314;2023-09-19T06:28:35;1.92;;;1.77;;
20318;SDS011;10317;47.254;11.314;2023-09-19T06:31:02;1.65;;;1.60;;
20318;SDS011;10317;47.254;11.314;2023-09-19T06:33:28;4.72;;;1.90;;
20318;SDS011;10317;47.254;11.314;2023-09-19T06:35:56;1.80;;;1.70;;
20318;SDS011;10317;47.254;11.314;2023-09-19T06:38:25;2.60;;;1.65;;
20318;SDS011;10317;47.254;11.314;2023-09-19T06:40:50;2.33;;;2.13;;
20318;SDS011;10317;47.254;11.314;2023-09-19T06:43:16;2.40;;;1.40;;
20318;SDS011;10317;47.254;11.314;2023-09-19T06:45:42;2.00;;;1.90;;
20318;SDS011;10317;47.254;11.314;2023-09-19T06:48:07;2.33;;;1.98;;
20318;SDS011;10317;47.254;11.314;2023-09-19T06:50:35;2.30;;;2.10;;
20318;SDS011;10317;47.254;11.314;2023-09-19T06:53:01;2.20;;;2.10;;
20318;SDS011;10317;47.254;11.314;2023-09-19T06:55:27;3.40;;;1.95;;
20318;SDS011;10317;47.254;11.314;2023-09-19T06:57:56;2.05;;;1.67;;
20318;SDS011;10317;47.254;11.314;2023-09-19T07:00:22;4.13;;;2.13;;
20318;SDS011;10317;47.254;11.314;2023-09-19T07:03:01;2.95;;;1.50;;
20318;SDS011;10317;47.254;11.314;2023-09-19T07:05:30;2.30;;;1.83;;
20318;SDS011;10317;47.254;11.314;2023-09-19T07:07:59;2.33;;;1.50;;
20318;SDS011;10317;47.254;11.314;2023-09-19T07:10:26;1.70;;;1.60;;
20318;SDS011;10317;47.254;11.314;2023-09-19T07:13:02;1.35;;;1.35;;
20318;SDS011;10317;47.254;11.314;2023-09-19T07:15:29;2.15;;;1.95;;
20318;SDS011;10317;47.254;11.314;2023-09-19T07:18:01;2.35;;;2.10;;
20318;SDS011;10317;47.254;11.314;2023-09-19T07:20:27;1.50;;;1.40;;
20318;SDS011;10317;47.254;11.314;2023-09-19T07:22:56;2.08;;;1.40;;
20318;SDS011;10317;47.254;11.314;2023-09-19T07:25:25;1.88;;;1.65;;
20318;SDS011;10317;47.254;11.314;2023-09-19T07:27:51;1.60;;;1.25;;
20318;SDS011;10317;47.254;11.314;2023-09-19T07:30:17;2.15;;;1.65;;
20318;SDS011;10317;47.254;11.314;2023-09-19T07:32:42;1.42;;;1.30;;
20318;SDS011;10317;47.254;11.314;2023-09-19T07:35:08;2.17;;;1.50;;
20318;SDS011;10317;47.254;11.314;2023-09-19T07:37:34;1.67;;;1.55;;
20318;SDS011;10317;47.254;11.314;2023-09-19T07:40:01;2.75;;;1.80;;
20318;SDS011;10317;47.254;11.314;2023-09-19T07:42:34;2.30;;;1.73;;
20318;SDS011;10317;47.254;11.314;2023-09-19T07:45:04;1.63;;;1.52;;
20318;SDS011;10317;47.254;11.314;2023-09-19T07:47:30;1.70;;;1.60;;
20318;SDS011;10317;47.254;11.314;2023-09-19T07:49:57;3.35;;;1.52;;
20318;SDS011;10317;47.254;11.314;2023-09-19T07:52:24;1.75;;;1.63;;
20318;SDS011;10317;47.254;11.314;2023-09-19T07:54:50;1.48;;;1.38;;
20318;SDS011;10317;47.254;11.314;2023-09-19T07:57:16;2.30;;;1.75;;
20318;SDS011;10317;47.254;11.314;2023-09-19T07:59:41;1.20;;;1.20;;
20318;SDS011;10317;47.254;11.314;2023-09-19T08:02:08;1.13;;;1.13;;
20318;SDS011;10317;47.254;11.314;2023-09-19T08:04:40;1.42;;;1.33;;
20318;SDS011;10317;47.254;11.314;2023-09-19T08:07:13;1.40;;;1.30;;
20318;SDS011;10317;47.254;11.314;2023-09-19T08:09:39;3.33;;;1.10;;
20318;SDS011;10317;47.254;11.314;2023-09-19T08:12:06;1.55;;;1.45;;
20318;SDS011;10317;47.254;11.314;2023-09-19T08:14:35;1.48;;;1.38;;
20318;SDS011;10317;47.254;11.314;2023-09-19T08:17:01;1.40;;;1.30;;
20318;SDS011;10317;47.254;11.314;2023-09-19T08:19:27;2.83;;;1.45;;
20318;SDS011;10317;47.254;11.314;2023-09-19T08:22:00;3.35;;;1.40;;
20318;SDS011;10317;47.254;11.314;2023-09-19T08:24:28;1.10;;;1.10;;
20318;SDS011;10317;47.254;11.314;2023-09-19T08:26:55;1.27;;;1.20;;
20318;SDS011;10317;47.254;11.314;2023-09-19T08:29:22;1.02;;;1.02;;
20318;SDS011;10317;47.254;11.314;2023-09-19T08:31:55;2.50;;;1.50;;
20318;SDS011;10317;47.254;11.314;2023-09-19T08:34:22;1.30;;;1.27;;
20318;SDS011;10317;47.254;11.314;2023-09-19T08:36:52;1.33;;;1.23;;
20318;SDS011;10317;47.254;11.314;2023-09-19T08:39:22;1.60;;;1.50;;
20318;SDS011;10317;47.254;11.314;2023-09-19T08:41:48;3.80;;;1.50;;
20318;SDS011;10317;47.254;11.314;2023-09-19T08:44:14;3.22;;;1.60;;
20318;SDS011;10317;47.254;11.314;2023-09-19T08:46:41;1.00;;;1.00;;
20318;SDS011;10317;47.254;11.314;2023-09-19T08:49:11;2.05;;;1.02;;
20318;SDS011;10317;47.254;11.314;2023-09-19T08:51:53;2.10;;;1.23;;
20318;SDS011;10317;47.254;11.314;2023-09-19T08:54:26;2.00;;;1.10;;
20318;SDS011;10317;47.254;11.314;2023-09-19T08:56:56;3.95;;;1.30;;
20318;SDS011;10317;47.254;11.314;2023-09-19T08:59:32;1.05;;;1.05;;
20318;SDS011;10317;47.254;11.314;2023-09-19T09:02:00;1.23;;;1.08;;
20318;SDS011;10317;47.254;11.314;2023-09-19T09:04:26;1.17;;;1.10;;
20318;SDS011;10317;47.254;11.314;2023-09-19T09:06:52;1.20;;;1.10;;
20318;SDS011;10317;47.254;11.314;2023-09-19T09:09:20;0.95;;;0.95;;
20318;SDS011;10317;47.254;11.314;2023-09-19T09:11:45;1.00;;;1.00;;
20318;SDS011;10317;47.254;11.314;2023-09-19T09:14:16;1.42;;;1.33;;
20318;SDS011;10317;47.254;11.314;2023-09-19T09:16:42;1.17;;;1.17;;
20318;SDS011;10317;47.254;11.314;2023-09-19T09:19:07;0.95;;;0.95;;
20318;SDS011;10317;47.254;11.314;2023-09-19T09:21:33;2.40;;;1.20;;
20318;SDS011;10317;47.254;11.314;2023-09-19T09:24:25;0.68;;;0.68;;
20318;SDS011;10317;47.254;11.314;2023-09-19T09:26:53;1.38;;;1.02;;
20318;SDS011;10317;47.254;11.314;2023-09-19T09:29:38;1.10;;;1.10;;
20318;SDS011;10317;47.254;11.314;2023-09-19T09:32:19;3.22;;;1.10;;
20318;SDS011;10317;47.254;11.314;2023-09-19T09:34:54;1.40;;;1.02;;
20318;SDS011;10317;47.254;11.314;2023-09-19T09:37:24;0.82;;;0.82;;
20318;SDS011;10317;47.254;11.314;2023-09-19T09:39:55;0.88;;;0.88;;
20318;SDS011;10317;47.254;11.314;2023-09-19T09:42:33;0.85;;;0.85;;
20318;SDS011;10317;47.254;11.314;2023-09-19T09:47:51;1.70;;;1.00;;
20318;SDS011;10317;47.254;11.314;2023-09-19T09:50:35;1.42;;;1.38;;
20318;SDS011;10317;47.254;11.314;2023-09-19T09:53:19;3.88;;;1.30;;
20318;SDS011;10317;47.254;11.314;2023-09-19T09:56:05;0.73;;;0.73;;
20318;SDS011;10317;47.254;11.314;2023-09-19T09:58:35;1.05;;;1.05;;
20318;SDS011;10317;47.254;11.314;2023-09-19T10:01:14;1.40;;;1.30;;
20318;SDS011;10317;47.254;11.314;2023-09-19T10:03:41;1.30;;;1.20;;
20318;SDS011;10317;47.254;11.314;2023-09-19T10:06:15;1.58;;;1.23;;
20318;SDS011;10317;47.254;11.314;2023-09-19T10:12:03;1.08;;;1.00;;
20318;SDS011;10317;47.254;11.314;2023-09-19T10:14:34;2.30;;;1.30;;
20318;SDS011;10317;47.254;11.314;2023-09-19T10:17:04;1.25;;;1.25;;
20318;SDS011;10317;47.254;11.314;2023-09-19T10:19:37;1.08;;;1.08;;
20318;SDS011;10317;47.254;11.314;2023-09-19T10:22:04;1.73;;;1.17;;
20318;SDS011;10317;47.254;11.314;2023-09-19T10:24:33;3.38;;;1.10;;
20318;SDS011;10317;47.254;11.314;2023-09-19T10:27:02;0.90;;;0.90;;
20318;SDS011;10317;47.254;11.314;2023-09-19T10:29:33;3.75;;;1.10;;
20318;SDS011;10317;47.254;11.314;2023-09-19T10:32:04;1.65;;;1.17;;
20318;SDS011;10317;47.254;11.314;2023-09-19T10:34:34;1.10;;;1.02;;
20318;SDS011;10317;47.254;11.314;2023-09-19T10:37:01;1.00;;;1.00;;
20318;SDS011;10317;47.254;11.314;2023-09-19T10:39:31;1.92;;;1.25;;
20318;SDS011;10317;47.254;11.314;2023-09-19T10:41:59;3.03;;;1.20;;
20318;SDS011;10317;47.254;11.314;2023-09-19T10:44:30;0.82;;;0.82;;
20318;SDS011;10317;47.254;11.314;2023-09-19T10:46:58;2.15;;;1.17;;
20318;SDS011;10317;47.254;11.314;2023-09-19T10:49:24;0.82;;;0.82;;
20318;SDS011;10317;47.254;11.314;2023-09-19T10:51:54;0.75;;;0.75;;
20318;SDS011;10317;47.254;11.314;2023-09-19T10:54:26;2.38;;;0.95;;
20318;SDS011;10317;47.254;11.314;2023-09-19T10:56:57;1.75;;;1.10;;
20318;SDS011;10317;47.254;11.314;2023-09-19T10:59:24;1.02;;;1.02;;
20318;SDS011;10317;47.254;11.314;2023-09-19T11:01:51;1.35;;;1.25;;
20318;SDS011;10317;47.254;11.314;2023-09-19T11:04:31;1.65;;;1.23;;
20318;SDS011;10317;47.254;11.314;2023-09-19T11:07:01;0.88;;;0.88;;
20318;SDS011;10317;47.254;11.314;2023-09-19T11:09:48;3.17;;;1.30;;
20318;SDS011;10317;47.254;11.314;2023-09-19T11:14:57;2.63;;;1.30;;
20318;SDS011;10317;47.254;11.314;2023-09-19T11:30:37;0.93;;;0.93;;
20318;SDS011;10317;47.254;11.314;2023-09-19T11:36:03;1.25;;;1.20;;
20318;SDS011;10317;47.254;11.314;2023-09-19T11:41:36;1.60;;;0.90;;
20318;SDS011;10317;47.254;11.314;2023-09-19T11:44:30;1.52;;;0.85;;
20318;SDS011;10317;47.254;11.314;2023-09-19T11:49:18;1.17;;;1.10;;
20318;SDS011;10317;47.254;11.314;2023-09-19T11:51:51;0.90;;;0.90;;
20318;SDS011;10317;47.254;11.314;2023-09-19T11:54:17;4.00;;;1.30;;
20318;SDS011;10317;47.254;11.314;2023-09-19T11:56:48;0.93;;;0.93;;
20318;SDS011;10317;47.254;11.314;2023-09-19T11:59:28;1.20;;;1.10;;
20318;SDS011;10317;47.254;11.314;2023-09-19T12:02:04;1.00;;;0.90;;
20318;SDS011;10317;47.254;11.314;2023-09-19T12:07:09;1.70;;;0.90;;
20318;SDS011;10317;47.254;11.314;2023-09-19T12:09:40;2.05;;;1.00;;
20318;SDS011;10317;47.254;11.314;2023-09-19T12:12:25;3.10;;;1.00;;
20318;SDS011;10317;47.254;11.314;2023-09-19T12:15:09;3.65;;;1.15;;
20318;SDS011;10317;47.254;11.314;2023-09-19T12:17:37;1.15;;;1.13;;
20318;SDS011;10317;47.254;11.314;2023-09-19T12:20:13;1.60;;;1.10;;
20318;SDS011;10317;47.254;11.314;2023-09-19T12:22:39;0.95;;;0.93;;
20318;SDS011;10317;47.254;11.314;2023-09-19T12:25:09;0.70;;;0.70;;
20318;SDS011;10317;47.254;11.314;2023-09-19T12:27:46;1.90;;;1.20;;
20318;SDS011;10317;47.254;11.314;2023-09-19T12:30:13;0.90;;;0.90;;
20318;SDS011;10317;47.254;11.314;2023-09-19T12:32:42;1.08;;;0.90;;
20318;SDS011;10317;47.254;11.314;2023-09-19T12:35:09;1.75;;;0.98;;
20318;SDS011;10317;47.254;11.314;2023-09-19T12:37:44;3.00;;;1.00;;
20318;SDS011;10317;47.254;11.314;2023-09-19T12:40:18;1.05;;;1.00;;
20318;SDS011;10317;47.254;11.314;2023-09-19T12:42:52;0.82;;;0.82;;
20318;SDS011;10317;47.254;11.314;2023-09-19T12:45:23;0.80;;;0.80;;
20318;SDS011;10317;47.254;11.314;2023-09-19T12:50:59;2.30;;;0.98;;
20318;SDS011;10317;47.254;11.314;2023-09-19T12:53:28;3.90;;;1.20;;
20318;SDS011;10317;47.254;11.314;2023-09-19T12:56:00;0.88;;;0.88;;
20318;SDS011;10317;47.254;11.314;2023-09-19T12:58:26;1.08;;;1.00;;
20318;SDS011;10317;47.254;11.314;2023-09-19T13:00:52;1.40;;;0.73;;
20318;SDS011;10317;47.254;11.314;2023-09-19T13:03:19;1.15;;;1.00;;
20318;SDS011;10317;47.254;11.314;2023-09-19T13:05:59;0.75;;;0.75;;
20318;SDS011;10317;47.254;11.314;2023-09-19T13:11:06;1.50;;;0.98;;
20318;SDS011;10317;47.254;11.314;2023-09-19T13:16:20;1.00;;;1.00;;
20318;SDS011;10317;47.254;11.314;2023-09-19T13:18:51;0.70;;;0.70;;
20318;SDS011;10317;47.254;11.314;2023-09-19T13:21:27;0.73;;;0.73;;
20318;SDS011;10317;47.254;11.314;2023-09-19T13:24:23;3.35;;;1.10;;
20318;SDS011;10317;47.254;11.314;2023-09-19T13:26:56;1.92;;;0.80;;
20318;SDS011;10317;47.254;11.314;2023-09-19T13:29:22;0.77;;;0.77;;
20318;SDS011;10317;47.254;11.314;2023-09-19T13:31:52;2.70;;;0.90;;
20318;SDS011;10317;47.254;11.314;2023-09-19T13:34:18;0.75;;;0.75;;
20318;SDS011;10317;47.254;11.314;2023-09-19T13:36:45;0.93;;;0.82;;
20318;SDS011;10317;47.254;11.314;2023-09-19T13:39:13;1.58;;;0.73;;
20318;SDS011;10317;47.254;11.314;2023-09-19T13:41:40;0.60;;;0.60;;
20318;SDS011;10317;47.254;11.314;2023-09-19T13:44:07;0.80;;;0.80;;
20318;SDS011;10317;47.254;11.314;2023-09-19T13:46:35;2.05;;;0.65;;
20318;SDS011;10317;47.254;11.314;2023-09-19T13:49:02;1.30;;;0.70;;
20318;SDS011;10317;47.254;11.314;2023-09-19T13:51:31;1.48;;;0.80;;
20318;SDS011;10317;47.254;11.314;2023-09-19T13:53:57;0.82;;;0.82;;
20318;SDS011;10317;47.254;11.314;2023-09-19T13:56:23;2.55;;;0.60;;
20318;SDS011;10317;47.254;11.314;2023-09-19T13:58:49;0.52;;;0.52;;
20318;SDS011;10317;47.254;11.314;2023-09-19T14:01:15;0.70;;;0.70;;
20318;SDS011;10317;47.254;11.314;2023-09-19T14:03:41;0.70;;;0.70;;
20318;SDS011;10317;47.254;11.314;2023-09-19T14:06:11;1.05;;;1.05;;
20318;SDS011;10317;47.254;11.314;2023-09-19T14:08:41;1.10;;;1.00;;
20318;SDS011;10317;47.254;11.314;2023-09-19T14:11:07;0.73;;;0.70;;
20318;SDS011;10317;47.254;11.314;2023-09-19T14:13:33;0.60;;;0.60;;
20318;SDS011;10317;47.254;11.314;2023-09-19T14:16:05;3.15;;;0.73;;
20318;SDS011;10317;47.254;11.314;2023-09-19T14:18:31;0.70;;;0.70;;
20318;SDS011;10317;47.254;11.314;2023-09-19T14:20:57;0.70;;;0.70;;
20318;SDS011;10317;47.254;11.314;2023-09-19T14:23:23;0.70;;;0.70;;
20318;SDS011;10317;47.254;11.314;2023-09-19T14:25:50;2.22;;;0.73;;
20318;SDS011;10317;47.254;11.314;2023-09-19T14:28:17;1.65;;;0.70;;
20318;SDS011;10317;47.254;11.314;2023-09-19T14:30:43;1.77;;;0.70;;
20318;SDS011;10317;47.254;11.314;2023-09-19T14:33:09;0.85;;;0.85;;
20318;SDS011;10317;47.254;11.314;2023-09-19T14:35:36;0.45;;;0.45;;
20318;SDS011;10317;47.254;11.314;2023-09-19T14:38:03;1.38;;;0.65;;
20318;SDS011;10317;47.254;11.314;2023-09-19T14:40:29;1.42;;;0.90;;
20318;SDS011;10317;47.254;11.314;2023-09-19T14:42:56;1.13;;;0.70;;
20318;SDS011;10317;47.254;11.314;2023-09-19T14:45:21;2.08;;;0.82;;
20318;SDS011;10317;47.254;11.314;2023-09-19T14:47:47;2.17;;;1.20;;
20318;SDS011;10317;47.254;11.314;2023-09-19T14:50:13;1.80;;;0.90;;
20318;SDS011;10317;47.254;11.314;2023-09-19T14:52:40;0.70;;;0.70;;
20318;SDS011;10317;47.254;11.314;2023-09-19T14:55:06;0.90;;;0.90;;
20318;SDS011;10317;47.254;11.314;2023-09-19T14:57:39;1.80;;;0.90;;
20318;SDS011;10317;47.254;11.314;2023-09-19T15:00:05;1.17;;;0.68;;
20318;SDS011;10317;47.254;11.314;2023-09-19T15:02:37;0.80;;;0.80;;
20318;SDS011;10317;47.254;11.314;2023-09-19T15:05:05;0.93;;;0.93;;
20318;SDS011;10317;47.254;11.314;2023-09-19T15:07:33;1.13;;;1.08;;
20318;SDS011;10317;47.254;11.314;2023-09-19T15:10:03;1.60;;;1.00;;
20318;SDS011;10317;47.254;11.314;2023-09-19T15:12:32;1.00;;;1.00;;
20318;SDS011;10317;47.254;11.314;2023-09-19T15:14:58;1.23;;;1.10;;
20318;SDS011;10317;47.254;11.314;2023-09-19T15:17:23;1.40;;;1.30;;
20318;SDS011;10317;47.254;11.314;2023-09-19T15:19:50;0.90;;;0.90;;
20318;SDS011;10317;47.254;11.314;2023-09-19T15:22:16;1.00;;;1.00;;
20318;SDS011;10317;47.254;11.314;2023-09-19T15:24:42;0.90;;;0.90;;
20318;SDS011;10317;47.254;11.314;2023-09-19T15:27:08;1.00;;;1.00;;
20318;SDS011;10317;47.254;11.314;2023-09-19T15:29:33;2.15;;;0.98;;
20318;SDS011;10317;47.254;11.314;2023-09-19T15:31:59;1.27;;;1.08;;
20318;SDS011;10317;47.254;11.314;2023-09-19T15:34:27;4.97;;;1.15;;
20318;SDS011;10317;47.254;11.314;2023-09-19T15:36:54;1.90;;;1.80;;
20318;SDS011;10317;47.254;11.314;2023-09-19T15:39:19;11.05;;;7.85;;
20318;SDS011;10317;47.254;11.314;2023-09-19T15:41:47;2.80;;;2.50;;
20318;SDS011;10317;47.254;11.314;2023-09-19T15:44:17;2.17;;;1.38;;